Time;durP1;ratioP1;P1;durP2;ratioP2;P2;SDS_P1;SDS_P2;PMS_P1;PMS_P2;Temp;Humidity;BMP_temperature;BMP_pressure;BME280_temperature;BME280_humidity;BME280_pressure;Samples;Min_cycle;Max_cycle;Signal;HPM_P1;HPM_P2
2022/01/21 00:01:01;;;;;;;0.30;0.10;;;0.40;99.90;;;;;;5111281;28;20198;-85
2022/01/21 00:03:28;;;;;;;0.30;0.10;;;0.40;99.90;;;;;;5112683;28;20250;-87
2022/01/21 00:05:55;;;;;;;0.30;0.15;;;0.40;99.90;;;;;;5105840;28;20206;-85
2022/01/21 00:08:22;;;;;;;0.30;0.10;;;0.40;99.90;;;;;;5091761;28;20657;-84
2022/01/21 00:10:51;;;;;;;0.30;0.10;;;0.40;99.90;;;;;;5102224;28;20609;-83
2022/01/21 00:13:23;;;;;;;0.30;0.10;;;0.40;99.90;;;;;;5108175;28;20229;-84
2022/01/21 00:15:50;;;;;;;0.30;0.10;;;0.30;99.90;;;;;;5107334;28;20229;-84
2022/01/21 00:18:19;;;;;;;0.30;0.10;;;0.30;99.90;;;;;;5105885;28;20221;-84
2022/01/21 00:31:45;;;;;;;0.30;0.10;;;0.10;99.90;;;;;;5081289;28;20212;-84
2022/01/21 00:34:12;;;;;;;0.30;0.10;;;0.20;99.90;;;;;;5074051;28;20198;-86
2022/01/21 00:36:39;;;;;;;0.30;0.10;;;0.20;99.90;;;;;;5074952;28;20206;-86
2022/01/21 00:39:06;;;;;;;0.30;0.10;;;0.20;99.90;;;;;;5073773;28;20589;-85
2022/01/21 00:41:40;;;;;;;0.30;0.10;;;0.20;99.90;;;;;;5073655;28;20546;-86
2022/01/21 00:44:07;;;;;;;0.30;0.10;;;0.10;99.90;;;;;;5082745;28;20209;-86
2022/01/21 00:46:34;;;;;;;0.30;0.20;;;0.10;99.90;;;;;;5093004;28;20287;-86
2022/01/21 00:49:01;;;;;;;0.30;0.10;;;0.10;99.90;;;;;;5094164;28;20554;-86
2022/01/21 00:51:28;;;;;;;0.30;0.10;;;0.10;99.90;;;;;;5093544;28;20209;-85
2022/01/21 00:53:55;;;;;;;0.30;0.10;;;0.10;99.90;;;;;;5084161;28;20253;-84
2022/01/21 00:56:23;;;;;;;0.30;0.10;;;0.10;99.90;;;;;;5073144;28;20260;-85
2022/01/21 00:58:51;;;;;;;0.30;0.10;;;0.10;99.90;;;;;;5072190;28;20241;-86
2022/01/21 01:01:18;;;;;;;0.30;0.10;;;0.00;99.90;;;;;;5072151;28;20223;-87
2022/01/21 01:03:45;;;;;;;0.30;0.10;;;-0.10;99.90;;;;;;5073197;28;20202;-87
2022/01/21 01:06:12;;;;;;;0.30;0.10;;;-0.30;99.90;;;;;;5072508;28;20203;-85
2022/01/21 01:08:39;;;;;;;0.30;0.10;;;-0.30;99.90;;;;;;5072414;28;20270;-85
2022/01/21 01:22:12;;;;;;;0.30;0.10;;;-0.50;99.90;;;;;;5091606;28;21040;-84
2022/01/21 01:27:41;;;;;;;0.30;0.10;;;-0.60;99.90;;;;;;5087256;28;20225;-84
2022/01/21 01:30:12;;;;;;;0.30;0.10;;;-0.60;99.90;;;;;;5071915;28;20209;-87
2022/01/21 01:32:40;;;;;;;0.30;0.10;;;-0.60;99.90;;;;;;5073437;28;20202;-86
2022/01/21 01:35:08;;;;;;;0.30;0.10;;;-0.70;99.90;;;;;;5072020;28;20303;-85
2022/01/21 01:38:08;;;;;;;0.30;0.10;;;-0.70;99.90;;;;;;5079463;28;20181;-85
2022/01/21 01:40:40;;;;;;;0.30;0.10;;;-0.70;99.90;;;;;;5097031;28;20194;-83
2022/01/21 01:51:31;;;;;;;0.30;0.10;;;-0.90;99.90;;;;;;5092419;28;20200;-84
2022/01/21 01:54:05;;;;;;;0.30;0.10;;;-1.00;99.90;;;;;;5073722;28;20670;-84
2022/01/21 01:56:34;;;;;;;0.30;0.10;;;-1.00;99.90;;;;;;5071939;28;20253;-86
2022/01/21 01:59:01;;;;;;;0.30;0.10;;;-1.00;99.90;;;;;;5072933;28;20240;-85
2022/01/21 02:01:30;;;;;;;0.30;0.10;;;-1.00;99.90;;;;;;5087092;28;20197;-85
2022/01/21 02:03:57;;;;;;;0.30;0.10;;;-1.00;99.90;;;;;;5071291;28;20683;-86
2022/01/21 02:06:24;;;;;;;0.30;0.10;;;-1.10;99.90;;;;;;5071535;28;20195;-85
2022/01/21 02:08:51;;;;;;;0.30;0.10;;;-1.10;99.90;;;;;;5071906;28;20194;-84
2022/01/21 02:11:18;;;;;;;0.30;0.10;;;-1.10;99.90;;;;;;5071825;28;20642;-84
2022/01/21 02:13:49;;;;;;;0.30;0.10;;;-1.10;99.90;;;;;;5074802;28;20204;-86
2022/01/21 02:16:32;;;;;;;0.40;0.20;;;-1.10;99.90;;;;;;5091648;28;20624;-87
2022/01/21 02:21:48;;;;;;;0.30;0.10;;;-1.10;99.90;;;;;;5091089;28;20682;-87
2022/01/21 02:24:19;;;;;;;0.30;0.10;;;-1.10;99.90;;;;;;5091116;28;20812;-85
2022/01/21 02:26:47;;;;;;;0.30;0.10;;;-1.10;99.90;;;;;;5091064;28;20242;-84
2022/01/21 02:29:26;;;;;;;0.30;0.10;;;-1.10;99.90;;;;;;5090668;28;20652;-87
2022/01/21 02:31:54;;;;;;;0.30;0.10;;;-1.10;99.90;;;;;;5091023;28;20207;-85
2022/01/21 02:34:21;;;;;;;0.30;0.10;;;-1.10;99.90;;;;;;5071222;28;20201;-84
2022/01/21 02:36:50;;;;;;;0.30;0.10;;;-1.10;99.90;;;;;;5071330;28;20646;-85
2022/01/21 02:39:17;;;;;;;0.30;0.10;;;-1.10;99.90;;;;;;5070635;28;20243;-85
2022/01/21 02:41:44;;;;;;;0.30;0.10;;;-1.10;99.90;;;;;;5070333;28;20202;-86
2022/01/21 02:44:15;;;;;;;0.30;0.10;;;-1.10;99.90;;;;;;5070727;28;20287;-85
2022/01/21 02:46:44;;;;;;;0.30;0.10;;;-1.10;99.90;;;;;;5076527;28;20688;-84
2022/01/21 02:49:11;;;;;;;0.30;0.10;;;-1.10;99.90;;;;;;5084653;28;20208;-84
2022/01/21 02:51:38;;;;;;;0.30;0.10;;;-1.10;99.90;;;;;;5070667;28;20198;-85
2022/01/21 02:54:07;;;;;;;0.30;0.10;;;-1.10;99.90;;;;;;5069905;28;20206;-86
2022/01/21 02:56:36;;;;;;;0.30;0.10;;;-1.10;99.90;;;;;;5071170;28;20231;-86
2022/01/21 02:59:05;;;;;;;0.30;0.10;;;-1.10;99.90;;;;;;5072369;28;20234;-84
2022/01/21 03:01:34;;;;;;;0.30;0.10;;;-1.10;99.90;;;;;;5081022;28;20255;-84
2022/01/21 03:04:02;;;;;;;0.30;0.10;;;-1.10;99.90;;;;;;5069808;28;20278;-85
2022/01/21 03:06:29;;;;;;;0.30;0.10;;;-1.10;99.90;;;;;;5070592;28;20212;-86
2022/01/21 03:08:58;;;;;;;0.30;0.10;;;-1.10;99.90;;;;;;5070799;28;20772;-86
2022/01/21 03:11:28;;;;;;;0.30;0.10;;;-1.10;99.90;;;;;;5070431;28;20201;-85
2022/01/21 03:13:56;;;;;;;0.30;0.10;;;-1.10;99.90;;;;;;5081644;28;20207;-86
2022/01/21 03:16:23;;;;;;;0.30;0.10;;;-1.10;99.90;;;;;;5115259;28;20250;-84
2022/01/21 03:18:50;;;;;;;0.30;0.10;;;-1.10;99.90;;;;;;5102629;28;20192;-85
2022/01/21 03:21:17;;;;;;;0.30;0.10;;;-1.10;99.90;;;;;;5086416;28;20251;-85
2022/01/21 03:23:47;;;;;;;0.30;0.10;;;-1.20;99.90;;;;;;5072644;28;20202;-86
2022/01/21 03:26:16;;;;;;;0.30;0.10;;;-1.30;99.90;;;;;;5069787;28;20201;-87
2022/01/21 03:28:47;;;;;;;0.30;0.10;;;-1.30;99.90;;;;;;5080459;28;20287;-85
2022/01/21 03:31:14;;;;;;;0.30;0.10;;;-1.40;99.90;;;;;;5090015;28;20193;-86
2022/01/21 03:33:42;;;;;;;0.30;0.10;;;-1.50;99.90;;;;;;5090070;28;20556;-86
2022/01/21 03:36:10;;;;;;;0.30;0.10;;;-1.50;99.90;;;;;;5089724;28;20248;-85
2022/01/21 03:38:37;;;;;;;0.30;0.10;;;-1.50;99.90;;;;;;5089999;28;20258;-85
2022/01/21 03:41:05;;;;;;;0.30;0.10;;;-1.50;99.90;;;;;;5089398;28;20258;-85
2022/01/21 03:43:33;;;;;;;0.30;0.10;;;-1.50;99.90;;;;;;5089783;28;20817;-85
2022/01/21 03:46:02;;;;;;;0.30;0.10;;;-1.50;99.90;;;;;;5089810;28;20260;-87
2022/01/21 03:48:29;;;;;;;0.30;0.10;;;-1.40;99.90;;;;;;5088510;28;20197;-86
2022/01/21 03:50:57;;;;;;;0.30;0.10;;;-1.40;99.90;;;;;;5070411;28;20209;-84
2022/01/21 03:53:24;;;;;;;0.30;0.10;;;-1.40;99.90;;;;;;5069305;28;20197;-85
2022/01/21 03:55:51;;;;;;;0.30;0.10;;;-1.50;99.90;;;;;;5081907;28;20274;-87
2022/01/21 03:58:18;;;;;;;0.30;0.10;;;-1.60;99.90;;;;;;5089179;28;20283;-85
2022/01/21 04:00:47;;;;;;;0.30;0.10;;;-1.70;99.90;;;;;;5089643;28;20197;-86
2022/01/21 04:03:16;;;;;;;0.30;0.10;;;-1.70;99.90;;;;;;5089194;28;20242;-87
2022/01/21 04:05:43;;;;;;;0.30;0.10;;;-1.80;99.90;;;;;;5092113;28;20208;-85
2022/01/21 04:08:12;;;;;;;0.30;0.10;;;-1.80;99.90;;;;;;5091474;28;20263;-87
2022/01/21 04:10:41;;;;;;;0.30;0.10;;;-1.80;99.90;;;;;;5072932;28;20201;-85
2022/01/21 04:13:14;;;;;;;0.30;0.10;;;-1.80;99.90;;;;;;5073395;28;20767;-85
2022/01/21 04:15:41;;;;;;;0.30;0.20;;;-1.80;99.90;;;;;;5076669;28;20675;-86
2022/01/21 04:18:08;;;;;;;0.30;0.10;;;-1.80;99.90;;;;;;5093480;28;20197;-87
2022/01/21 04:20:37;;;;;;;0.30;0.10;;;-1.70;99.90;;;;;;5093605;28;20639;-86
2022/01/21 04:23:04;;;;;;;0.30;0.10;;;-1.70;99.90;;;;;;5075018;28;20280;-85
2022/01/21 04:25:31;;;;;;;0.30;0.10;;;-1.80;99.90;;;;;;5072882;28;20251;-85
2022/01/21 04:27:58;;;;;;;0.30;0.10;;;-1.80;99.90;;;;;;5073155;28;20648;-85
2022/01/21 04:30:25;;;;;;;0.30;0.10;;;-1.80;99.90;;;;;;5073748;28;20197;-85
2022/01/21 04:32:52;;;;;;;0.30;0.10;;;-1.70;99.90;;;;;;5072533;28;20676;-87
2022/01/21 04:35:19;;;;;;;0.30;0.10;;;-1.80;99.90;;;;;;5073312;28;20197;-87
2022/01/21 04:37:53;;;;;;;0.30;0.10;;;-1.80;99.90;;;;;;5072424;28;20194;-86
2022/01/21 04:40:23;;;;;;;0.30;0.10;;;-1.80;99.90;;;;;;5072429;28;20198;-86
2022/01/21 04:48:18;;;;;;;0.30;0.10;;;-1.80;99.90;;;;;;5092705;28;20714;-85
2022/01/21 04:50:54;;;;;;;0.30;0.10;;;-1.90;99.90;;;;;;5112272;28;20201;-86
2022/01/21 04:53:24;;;;;;;0.30;0.10;;;-1.90;99.90;;;;;;5110535;28;20214;-85
2022/01/21 04:55:51;;;;;;;0.30;0.10;;;-2.00;99.90;;;;;;5102917;28;20270;-86
2022/01/21 04:58:19;;;;;;;0.30;0.10;;;-2.00;99.90;;;;;;5093789;28;20709;-85
2022/01/21 05:00:46;;;;;;;0.30;0.10;;;-2.00;99.90;;;;;;5085044;28;20194;-86
2022/01/21 05:03:14;;;;;;;0.30;0.10;;;-2.00;99.90;;;;;;5091179;28;20705;-86
2022/01/21 05:05:41;;;;;;;0.30;0.10;;;-1.90;99.90;;;;;;5092762;28;20209;-86
2022/01/21 05:08:19;;;;;;;0.30;0.10;;;-1.90;99.90;;;;;;5091842;28;20236;-85
2022/01/21 05:10:48;;;;;;;0.30;0.10;;;-1.90;99.90;;;;;;5090210;28;20201;-86
2022/01/21 05:13:17;;;;;;;0.30;0.10;;;-1.90;99.90;;;;;;5093076;28;20205;-86
2022/01/21 05:16:01;;;;;;;0.30;0.10;;;-1.80;99.90;;;;;;5091649;28;20216;-86
2022/01/21 05:18:28;;;;;;;0.30;0.10;;;-1.80;99.90;;;;;;5078309;28;20556;-83
2022/01/21 05:20:56;;;;;;;0.30;0.10;;;-1.90;99.90;;;;;;5092743;28;20201;-82
2022/01/21 05:23:23;;;;;;;0.30;0.10;;;-1.90;99.90;;;;;;5097600;28;20193;-83
2022/01/21 05:25:52;;;;;;;0.30;0.10;;;-1.90;99.90;;;;;;5089769;28;20201;-86
2022/01/21 05:28:19;;;;;;;0.30;0.10;;;-2.00;99.90;;;;;;5082025;28;20891;-85
2022/01/21 05:30:46;;;;;;;0.30;0.10;;;-2.00;99.90;;;;;;5075166;28;20197;-86
2022/01/21 05:33:13;;;;;;;0.30;0.10;;;-2.00;99.90;;;;;;5091566;28;20205;-85
2022/01/21 05:35:40;;;;;;;0.30;0.10;;;-2.10;99.90;;;;;;5091610;28;20250;-85
2022/01/21 05:38:07;;;;;;;0.30;0.10;;;-2.10;99.90;;;;;;5090087;28;20194;-86
2022/01/21 05:40:34;;;;;;;0.30;0.10;;;-2.10;99.90;;;;;;5080955;28;20193;-86
2022/01/21 05:43:02;;;;;;;0.30;0.10;;;-2.10;99.90;;;;;;5086349;28;20194;-87
2022/01/21 05:48:13;;;;;;;0.30;0.10;;;-2.20;99.90;;;;;;5073650;28;20212;-87
2022/01/21 05:50:40;;;;;;;0.30;0.10;;;-2.20;99.90;;;;;;5090621;28;20197;-87
2022/01/21 05:53:10;;;;;;;0.30;0.10;;;-2.20;99.90;;;;;;5072514;28;20193;-86
2022/01/21 05:55:40;;;;;;;0.30;0.10;;;-2.20;99.90;;;;;;5082695;28;20276;-88
2022/01/21 05:58:10;;;;;;;0.30;0.10;;;-2.20;99.90;;;;;;5092702;28;20542;-87
2022/01/21 06:00:37;;;;;;;0.30;0.10;;;-2.30;99.90;;;;;;5095029;28;20201;-87
2022/01/21 06:03:05;;;;;;;0.30;0.10;;;-2.30;99.90;;;;;;5091106;28;20201;-87
2022/01/21 06:05:33;;;;;;;0.30;0.10;;;-2.30;99.90;;;;;;5091055;28;20197;-86
2022/01/21 06:08:01;;;;;;;0.30;0.10;;;-2.40;99.90;;;;;;5091636;28;20254;-88
2022/01/21 06:10:29;;;;;;;0.30;0.10;;;-2.40;99.90;;;;;;5091178;28;20197;-86
2022/01/21 06:12:56;;;;;;;0.30;0.10;;;-2.50;99.90;;;;;;5091699;28;20660;-87
2022/01/21 06:15:25;;;;;;;0.30;0.10;;;-2.50;99.90;;;;;;5090706;28;20193;-87
2022/01/21 06:17:53;;;;;;;0.30;0.10;;;-2.50;99.90;;;;;;5090656;28;20625;-87
2022/01/21 06:20:20;;;;;;;0.30;0.10;;;-2.50;99.90;;;;;;5089881;28;20274;-87
2022/01/21 06:22:47;;;;;;;0.30;0.10;;;-2.60;99.90;;;;;;5091989;28;20197;-87
2022/01/21 06:25:14;;;;;;;0.30;0.10;;;-2.60;99.90;;;;;;5092234;28;20192;-87
2022/01/21 06:27:41;;;;;;;0.30;0.10;;;-2.60;99.90;;;;;;5115598;28;20242;-88
2022/01/21 06:30:09;;;;;;;0.30;0.10;;;-2.60;99.90;;;;;;5110103;28;20203;-86
2022/01/21 06:32:37;;;;;;;0.30;0.10;;;-2.60;99.90;;;;;;5108824;28;20200;-86
2022/01/21 06:35:05;;;;;;;0.30;0.10;;;-2.70;99.90;;;;;;5098377;28;20243;-87
2022/01/21 06:37:32;;;;;;;0.30;0.10;;;-2.70;99.90;;;;;;5092591;28;20281;-87
2022/01/21 06:39:59;;;;;;;0.30;0.10;;;-2.70;99.90;;;;;;5086271;28;20212;-86
2022/01/21 06:42:28;;;;;;;0.30;0.10;;;-2.70;99.90;;;;;;5087899;28;20197;-87
2022/01/21 06:44:55;;;;;;;0.30;0.10;;;-2.70;99.90;;;;;;5090222;28;20192;-86
2022/01/21 06:47:22;;;;;;;0.30;0.10;;;-2.70;99.90;;;;;;5086995;28;20197;-86
2022/01/21 06:49:50;;;;;;;0.30;0.10;;;-2.70;99.90;;;;;;5089852;28;20196;-85
2022/01/21 06:52:17;;;;;;;4.22;0.77;;;-2.70;99.90;;;;;;5089882;28;20192;-88
2022/01/21 06:54:44;;;;;;;0.30;0.10;;;-2.70;99.90;;;;;;5090353;28;20644;-86
2022/01/21 06:57:12;;;;;;;0.30;0.10;;;-2.80;99.90;;;;;;5088903;28;20264;-87
2022/01/21 06:59:39;;;;;;;0.30;0.10;;;-2.80;99.90;;;;;;5087349;28;20231;-86
2022/01/21 07:02:06;;;;;;;0.30;0.10;;;-2.70;99.90;;;;;;5090419;28;20193;-85
2022/01/21 07:04:33;;;;;;;0.30;0.10;;;-2.70;99.90;;;;;;5088873;28;20250;-86
2022/01/21 07:07:02;;;;;;;1.45;1.38;;;-2.80;99.90;;;;;;5080589;28;20205;-86
2022/01/21 07:09:29;;;;;;;0.30;0.10;;;-2.80;99.90;;;;;;5090731;28;20205;-85
2022/01/21 07:11:56;;;;;;;0.30;0.10;;;-2.80;99.90;;;;;;5084133;28;20228;-85
2022/01/21 07:14:23;;;;;;;0.30;0.10;;;-2.70;99.90;;;;;;5069540;28;20589;-86
2022/01/21 07:16:50;;;;;;;0.90;0.90;;;-2.70;99.90;;;;;;5070173;28;20274;-84
2022/01/21 07:19:17;;;;;;;0.30;0.10;;;-2.70;99.90;;;;;;5073862;28;20235;-86
2022/01/21 07:21:44;;;;;;;0.30;0.10;;;-2.70;99.90;;;;;;5090059;28;20279;-86
2022/01/21 07:24:13;;;;;;;0.30;0.10;;;-2.70;99.90;;;;;;5072584;28;20702;-85
2022/01/21 07:26:40;;;;;;;0.30;0.10;;;-2.70;99.90;;;;;;5069423;28;20201;-87
2022/01/21 07:29:07;;;;;;;0.30;0.10;;;-2.60;99.90;;;;;;5068332;28;20247;-84
2022/01/21 07:31:34;;;;;;;0.30;0.10;;;-2.60;99.90;;;;;;5068425;28;20263;-87
2022/01/21 07:34:04;;;;;;;0.30;0.10;;;-2.60;99.90;;;;;;5088306;28;20196;-86
2022/01/21 07:36:32;;;;;;;0.30;0.10;;;-2.60;99.90;;;;;;5087032;28;20299;-85
2022/01/21 07:38:59;;;;;;;0.30;0.10;;;-2.50;99.90;;;;;;5079942;28;20209;-85
2022/01/21 07:41:27;;;;;;;0.30;0.10;;;-2.50;99.90;;;;;;5080748;28;20201;-87
2022/01/21 07:43:54;;;;;;;0.68;0.68;;;-2.50;99.90;;;;;;5083234;28;20197;-86
2022/01/21 07:46:22;;;;;;;0.30;0.10;;;-2.50;99.90;;;;;;5089161;28;20200;-88
2022/01/21 07:48:49;;;;;;;0.30;0.10;;;-2.50;99.90;;;;;;5086689;28;20196;-85
2022/01/21 07:51:16;;;;;;;1.58;1.48;;;-2.50;99.90;;;;;;5090342;28;20250;-86
2022/01/21 07:53:43;;;;;;;0.30;0.10;;;-2.50;99.90;;;;;;5070967;28;20237;-85
2022/01/21 07:56:10;;;;;;;0.30;0.10;;;-2.50;99.90;;;;;;5069051;28;20782;-84
2022/01/21 07:58:38;;;;;;;0.30;0.10;;;-2.50;99.90;;;;;;5071112;28;20287;-85
2022/01/21 08:01:05;;;;;;;0.30;0.10;;;-2.50;99.90;;;;;;5088714;28;20196;-87
2022/01/21 08:03:32;;;;;;;0.30;0.10;;;-2.40;99.90;;;;;;5094340;28;20201;-86
2022/01/21 08:05:59;;;;;;;0.30;0.10;;;-2.40;99.90;;;;;;5103288;28;20185;-86
2022/01/21 08:08:27;;;;;;;0.30;0.10;;;-2.40;99.90;;;;;;5105511;28;20205;-86
2022/01/21 08:10:54;;;;;;;0.30;0.10;;;-2.40;99.90;;;;;;5091398;28;20266;-86
2022/01/21 08:13:22;;;;;;;0.30;0.10;;;-2.30;99.90;;;;;;5081790;28;20207;-87
2022/01/21 08:15:50;;;;;;;0.30;0.10;;;-2.30;99.90;;;;;;5090572;28;20200;-85
2022/01/21 08:18:17;;;;;;;0.30;0.10;;;-2.20;99.90;;;;;;5090112;28;20220;-88
2022/01/21 08:20:44;;;;;;;0.30;0.10;;;-2.20;99.90;;;;;;5080694;28;20365;-86
2022/01/21 08:23:11;;;;;;;0.30;0.10;;;-2.20;99.90;;;;;;5069815;28;20648;-86
2022/01/21 08:25:39;;;;;;;0.30;0.10;;;-2.20;99.90;;;;;;5069332;28;20198;-87
2022/01/21 08:28:07;;;;;;;0.30;0.10;;;-2.10;99.90;;;;;;5087736;28;20197;-87
2022/01/21 08:30:34;;;;;;;0.30;0.10;;;-2.10;99.90;;;;;;5089644;28;20201;-86
2022/01/21 08:33:03;;;;;;;0.30;0.10;;;-2.00;99.90;;;;;;5089369;28;20201;-86
2022/01/21 08:35:31;;;;;;;0.30;0.10;;;-2.00;99.90;;;;;;5088120;28;20273;-86
2022/01/21 08:37:58;;;;;;;0.30;0.10;;;-2.00;99.90;;;;;;5089810;28;20224;-87
2022/01/21 08:40:25;;;;;;;0.30;0.10;;;-1.90;99.90;;;;;;5087674;28;20227;-86
2022/01/21 08:42:53;;;;;;;0.30;0.10;;;-1.80;99.90;;;;;;5089068;28;20197;-86
2022/01/21 08:45:21;;;;;;;0.30;0.10;;;-1.80;99.90;;;;;;5089153;28;20262;-86
2022/01/21 08:47:49;;;;;;;0.30;0.10;;;-1.70;99.90;;;;;;5089175;28;20200;-86
2022/01/21 08:50:19;;;;;;;0.30;0.10;;;-1.70;99.90;;;;;;5088594;28;20196;-87
2022/01/21 08:52:47;;;;;;;0.30;0.10;;;-1.70;99.90;;;;;;5091602;28;20258;-89
2022/01/21 08:55:16;;;;;;;0.30;0.10;;;-1.60;99.90;;;;;;5092861;28;20216;-86
2022/01/21 08:57:45;;;;;;;0.30;0.10;;;-1.60;99.90;;;;;;5082350;28;20715;-86
2022/01/21 09:00:16;;;;;;;0.30;0.10;;;-1.60;99.90;;;;;;5079350;28;20289;-86
2022/01/21 09:02:43;;;;;;;0.30;0.10;;;-1.70;99.90;;;;;;5072394;28;20229;-88
2022/01/21 09:05:10;;;;;;;0.30;0.10;;;-1.60;99.90;;;;;;5072286;28;20198;-87
2022/01/21 09:07:39;;;;;;;0.30;0.10;;;-1.60;99.90;;;;;;5090856;28;20246;-87
2022/01/21 09:10:08;;;;;;;0.30;0.10;;;-1.50;99.90;;;;;;5088123;28;20288;-86
2022/01/21 09:12:35;;;;;;;0.30;0.10;;;-1.40;99.90;;;;;;5072576;28;20204;-86
2022/01/21 09:15:03;;;;;;;0.30;0.10;;;-1.40;99.90;;;;;;5072181;28;20285;-87
2022/01/21 09:17:30;;;;;;;0.30;0.10;;;-1.40;99.90;;;;;;5072343;28;20225;-87
2022/01/21 09:19:57;;;;;;;0.30;0.10;;;-1.50;99.90;;;;;;5077635;28;20199;-86
2022/01/21 09:22:24;;;;;;;0.30;0.10;;;-1.50;99.90;;;;;;5091474;28;20224;-88
2022/01/21 09:24:52;;;;;;;0.40;0.30;;;-1.40;99.90;;;;;;5092842;28;20196;-86
2022/01/21 09:27:19;;;;;;;0.30;0.10;;;-1.30;99.90;;;;;;5091606;28;20209;-85
2022/01/21 09:29:46;;;;;;;0.30;0.10;;;-1.30;99.90;;;;;;5091925;28;20200;-88
2022/01/21 09:32:13;;;;;;;0.30;0.10;;;-1.20;99.90;;;;;;5092237;28;20601;-86
2022/01/21 09:34:40;;;;;;;0.30;0.10;;;-1.10;99.90;;;;;;5091887;28;20228;-86
2022/01/21 09:37:07;;;;;;;0.30;0.10;;;-1.20;99.90;;;;;;5100294;28;20192;-87
2022/01/21 09:39:34;;;;;;;0.30;0.10;;;-1.10;99.90;;;;;;5117467;28;20231;-86
2022/01/21 09:42:03;;;;;;;0.30;0.10;;;-1.20;99.90;;;;;;5100737;28;20202;-87
2022/01/21 09:44:32;;;;;;;0.30;0.10;;;-1.10;99.90;;;;;;5083008;28;20678;-88
2022/01/21 09:47:00;;;;;;;0.30;0.10;;;-1.00;99.90;;;;;;5080418;28;20213;-88
2022/01/21 09:49:28;;;;;;;0.30;0.10;;;-0.90;99.90;;;;;;5073025;28;20233;-87
2022/01/21 09:51:57;;;;;;;0.30;0.10;;;-1.10;99.90;;;;;;5081374;28;20197;-86
2022/01/21 09:54:25;;;;;;;0.30;0.10;;;-1.20;99.90;;;;;;5091332;28;20193;-86
2022/01/21 09:56:54;;;;;;;0.30;0.10;;;-1.10;99.90;;;;;;5088228;28;20197;-86
2022/01/21 09:59:24;;;;;;;0.30;0.10;;;-1.10;99.90;;;;;;5085542;28;20644;-88
2022/01/21 10:01:53;;;;;;;0.30;0.10;;;-1.10;99.90;;;;;;5090932;28;20211;-86
2022/01/21 10:04:22;;;;;;;0.30;0.10;;;-1.00;99.90;;;;;;5090030;28;20197;-88
2022/01/21 10:06:49;;;;;;;0.30;0.10;;;-1.00;99.90;;;;;;5090775;28;20619;-86
2022/01/21 10:09:17;;;;;;;0.30;0.10;;;-1.00;99.90;;;;;;5091621;28;20227;-88
2022/01/21 10:11:48;;;;;;;0.30;0.10;;;-1.00;99.90;;;;;;5080824;28;20318;-86
2022/01/21 10:14:16;;;;;;;0.30;0.10;;;-0.90;99.90;;;;;;5090960;28;20193;-86
2022/01/21 10:16:46;;;;;;;0.30;0.20;;;-1.00;99.90;;;;;;5091258;28;20204;-86
2022/01/21 10:19:13;;;;;;;0.30;0.10;;;-1.00;99.90;;;;;;5095359;28;20220;-86
2022/01/21 10:21:44;;;;;;;0.30;0.10;;;-0.80;99.90;;;;;;5088356;28;20193;-85
2022/01/21 10:24:12;;;;;;;0.30;0.10;;;-0.70;99.90;;;;;;5093530;28;20254;-86
2022/01/21 10:26:48;;;;;;;0.30;0.10;;;-0.50;99.90;;;;;;5098388;28;20672;-85
2022/01/21 10:29:15;;;;;;;0.30;0.10;;;-0.40;99.90;;;;;;5097659;28;20197;-87
2022/01/21 10:31:54;;;;;;;0.30;0.10;;;-0.40;99.90;;;;;;5096835;28;20201;-85
2022/01/21 10:34:26;;;;;;;0.30;0.10;;;-0.40;99.90;;;;;;5096837;28;20270;-86
2022/01/21 10:36:57;;;;;;;0.30;0.10;;;-0.40;99.80;;;;;;5090718;28;20708;-85
2022/01/21 10:39:29;;;;;;;0.30;0.10;;;-0.40;99.90;;;;;;5073409;28;20230;-86
2022/01/21 10:41:57;;;;;;;0.30;0.10;;;-0.40;99.90;;;;;;5070583;28;20234;-88
2022/01/21 10:44:28;;;;;;;0.30;0.10;;;-0.30;99.90;;;;;;5071009;28;20207;-86
2022/01/21 10:47:09;;;;;;;0.30;0.10;;;-0.30;99.90;;;;;;5082448;28;20202;-86
2022/01/21 10:49:39;;;;;;;0.30;0.10;;;-0.20;99.90;;;;;;5090952;28;20251;-88
2022/01/21 10:52:09;;;;;;;0.30;0.10;;;-0.30;99.90;;;;;;5091413;28;20206;-88
2022/01/21 10:54:42;;;;;;;0.30;0.10;;;-0.30;99.90;;;;;;5089690;28;20199;-85
2022/01/21 10:57:14;;;;;;;0.30;0.10;;;-0.40;99.90;;;;;;5089817;28;20715;-86
2022/01/21 10:59:53;;;;;;;0.30;0.10;;;-0.50;99.90;;;;;;5086589;28;20223;-86
2022/01/21 11:02:34;;;;;;;0.30;0.10;;;-0.60;99.70;;;;;;5087647;28;20201;-85
2022/01/21 11:05:04;;;;;;;0.30;0.10;;;-0.40;99.90;;;;;;5090265;28;20280;-86
2022/01/21 11:07:59;;;;;;;0.30;0.10;;;-0.40;99.90;;;;;;5073852;28;20205;-86
2022/01/21 11:10:49;;;;;;;0.30;0.10;;;-0.20;99.90;;;;;;5092174;28;20639;-85
2022/01/21 11:13:40;;;;;;;0.30;0.10;;;-0.30;99.90;;;;;;5093265;28;20204;-84
2022/01/21 11:16:25;;;;;;;0.30;0.10;;;-0.10;99.90;;;;;;5104025;28;20635;-86
2022/01/21 11:18:57;;;;;;;0.30;0.10;;;-0.30;99.20;;;;;;5100484;28;20568;-86
2022/01/21 11:21:37;;;;;;;0.30;0.10;;;-0.30;99.40;;;;;;5090698;28;20259;-85
2022/01/21 11:24:09;;;;;;;0.30;0.10;;;-0.10;99.90;;;;;;5090216;28;20200;-86
2022/01/21 11:26:37;;;;;;;0.30;0.10;;;-0.10;98.70;;;;;;5088343;28;20193;-86
2022/01/21 11:29:05;;;;;;;0.30;0.10;;;-0.20;99.30;;;;;;5090604;28;20205;-86
2022/01/21 11:31:33;;;;;;;0.30;0.10;;;-0.10;99.50;;;;;;5083410;28;20219;-85
2022/01/21 11:34:02;;;;;;;0.30;0.20;;;-0.10;99.20;;;;;;5070729;28;20201;-86
2022/01/21 11:36:29;;;;;;;0.30;0.10;;;-0.10;97.60;;;;;;5068379;28;20371;-90
2022/01/21 11:38:58;;;;;;;0.30;0.10;;;0.00;98.20;;;;;;5068805;28;20279;-85
2022/01/21 11:41:28;;;;;;;0.30;0.10;;;0.10;97.10;;;;;;5069426;28;20277;-86
2022/01/21 11:44:01;;;;;;;0.30;0.10;;;0.10;98.00;;;;;;5070404;28;20282;-85
2022/01/21 11:46:47;;;;;;;0.30;0.10;;;0.20;98.40;;;;;;5068988;28;20221;-89
2022/01/21 11:49:21;;;;;;;0.30;0.10;;;0.20;98.90;;;;;;5069848;28;20194;-89
2022/01/21 11:51:48;;;;;;;0.30;0.10;;;0.10;97.60;;;;;;5069539;28;20205;-90
2022/01/21 11:54:17;;;;;;;0.30;0.10;;;0.10;97.80;;;;;;5068085;28;20288;-91
2022/01/21 11:56:46;;;;;;;0.30;0.10;;;0.10;97.90;;;;;;5068439;28;20279;-90
2022/01/21 11:59:29;;;;;;;0.30;0.10;;;0.20;96.90;;;;;;5071521;28;20223;-91
2022/01/21 12:01:56;;;;;;;0.30;0.10;;;0.20;97.50;;;;;;5086361;28;20198;-90
2022/01/21 12:04:42;;;;;;;0.30;0.10;;;0.20;97.20;;;;;;5083688;28;20264;-90
2022/01/21 12:07:54;;;;;;;0.30;0.10;;;0.40;97.70;;;;;;5088384;28;20203;-90
2022/01/21 12:10:35;;;;;;;0.30;0.10;;;0.40;96.90;;;;;;5084593;28;20264;-91
2022/01/21 12:13:11;;;;;;;0.30;0.10;;;0.50;97.10;;;;;;5088931;28;20203;-92
2022/01/21 12:21:53;;;;;;;0.30;0.10;;;0.90;96.20;;;;;;5070023;28;20197;-92
2022/01/21 12:24:46;;;;;;;0.30;0.10;;;0.80;95.90;;;;;;5071558;28;20209;-89
2022/01/21 12:27:13;;;;;;;0.30;0.10;;;0.70;94.30;;;;;;5092068;28;20214;-88
2022/01/21 12:29:41;;;;;;;0.30;0.20;;;0.60;94.30;;;;;;5091165;28;20236;-90
2022/01/21 12:32:16;;;;;;;0.30;0.10;;;0.40;93.80;;;;;;5073614;28;20528;-90
2022/01/21 12:35:15;;;;;;;0.30;0.10;;;0.30;94.70;;;;;;5077565;28;20201;-91
2022/01/21 12:41:04;;;;;;;0.30;0.10;;;0.10;95.20;;;;;;5094374;28;20416;-90
2022/01/21 12:43:41;;;;;;;0.30;0.10;;;0.10;94.40;;;;;;5093695;28;20282;-91
2022/01/21 12:46:10;;;;;;;0.30;0.10;;;0.10;95.50;;;;;;5088994;28;20197;-90
2022/01/21 12:48:38;;;;;;;0.30;0.10;;;0.10;94.90;;;;;;5095550;28;20199;-90
2022/01/21 12:51:15;;;;;;;0.30;0.10;;;0.10;95.00;;;;;;5101988;28;20202;-90
2022/01/21 12:56:38;;;;;;;0.30;0.10;;;0.30;95.70;;;;;;5051448;28;20236;-91
2022/01/21 12:59:06;;;;;;;0.30;0.10;;;0.40;95.80;;;;;;5074692;28;20226;-90
2022/01/21 13:01:37;;;;;;;0.30;0.10;;;0.30;96.10;;;;;;5093368;28;20633;-90
2022/01/21 13:04:11;;;;;;;0.30;0.10;;;0.20;96.60;;;;;;5093044;28;20220;-91
2022/01/21 13:06:42;;;;;;;0.30;0.10;;;0.10;97.30;;;;;;5092727;28;20205;-91
2022/01/21 13:09:11;;;;;;;0.30;0.10;;;0.10;97.60;;;;;;5093476;28;20198;-86
2022/01/21 13:11:43;;;;;;;0.30;0.10;;;0.10;98.00;;;;;;5092946;28;20272;-85
2022/01/21 13:14:33;;;;;;;0.30;0.20;;;0.10;97.90;;;;;;5092795;28;20190;-87
2022/01/21 13:17:02;;;;;;;0.30;0.20;;;0.10;98.40;;;;;;5072222;28;20757;-88
2022/01/21 13:19:30;;;;;;;0.30;0.10;;;0.00;98.60;;;;;;5078221;28;20318;-87
2022/01/21 13:21:57;;;;;;;0.30;0.10;;;-0.10;99.10;;;;;;5093340;28;20194;-86
2022/01/21 13:24:27;;;;;;;0.30;0.10;;;-0.10;99.50;;;;;;5091677;28;20205;-86
2022/01/21 13:26:56;;;;;;;0.30;0.10;;;-0.10;99.90;;;;;;5092727;28;20196;-83
2022/01/21 13:29:32;;;;;;;0.30;0.10;;;-0.30;99.90;;;;;;5089645;28;20590;-88
2022/01/21 13:32:00;;;;;;;0.30;0.10;;;-0.40;99.90;;;;;;5091429;28;20200;-88
2022/01/21 13:34:30;;;;;;;0.30;0.10;;;-0.30;99.90;;;;;;5091450;28;20607;-86
2022/01/21 13:36:59;;;;;;;1.10;0.77;;;-0.20;99.90;;;;;;5090492;28;20215;-86
2022/01/21 13:39:28;;;;;;;0.30;0.10;;;0.00;99.90;;;;;;5072461;28;20229;-91
2022/01/21 13:42:00;;;;;;;0.30;0.10;;;0.00;99.90;;;;;;5071908;28;20417;-87
2022/01/21 13:44:29;;;;;;;0.30;0.10;;;0.20;99.90;;;;;;5079690;28;20592;-88
2022/01/21 13:46:57;;;;;;;0.30;0.10;;;0.30;99.90;;;;;;5091638;28;20216;-87
2022/01/21 13:49:25;;;;;;;0.30;0.10;;;0.40;99.90;;;;;;5085534;28;20211;-87
2022/01/21 13:51:54;;;;;;;0.30;0.10;;;0.40;99.90;;;;;;5079112;28;20261;-87
2022/01/21 13:54:30;;;;;;;0.30;0.10;;;0.30;99.90;;;;;;5088431;28;20246;-86
2022/01/21 13:56:58;;;;;;;0.30;0.10;;;0.20;99.90;;;;;;5089188;28;20262;-87